sensor_id;sensor_type;location;lat;lon;timestamp;pressure;altitude;pressure_sealevel;temperature;humidity
47636;BME280;33364;50.766;15.338;2024-01-25T00:01:41;95185.41;;;2.79;92.11
47636;BME280;33364;50.766;15.338;2024-01-25T00:04:07;95196.28;;;2.76;92.42
47636;BME280;33364;50.766;15.338;2024-01-25T00:06:33;95212.06;;;2.69;92.66
47636;BME280;33364;50.766;15.338;2024-01-25T00:08:58;95200.75;;;2.64;93.17
47636;BME280;33364;50.766;15.338;2024-01-25T00:11:24;95189.16;;;2.60;93.43
47636;BME280;33364;50.766;15.338;2024-01-25T00:13:50;95187.50;;;2.53;93.88
47636;BME280;33364;50.766;15.338;2024-01-25T00:16:16;95185.13;;;2.52;93.93
47636;BME280;33364;50.766;15.338;2024-01-25T00:18:42;95211.75;;;2.42;94.45
47636;BME280;33364;50.766;15.338;2024-01-25T00:21:08;95207.91;;;2.33;95.09
47636;BME280;33364;50.766;15.338;2024-01-25T00:23:33;95189.66;;;2.33;95.43
47636;BME280;33364;50.766;15.338;2024-01-25T00:25:59;95205.66;;;2.37;95.43
47636;BME280;33364;50.766;15.338;2024-01-25T00:28:25;95193.53;;;2.42;95.30
47636;BME280;33364;50.766;15.338;2024-01-25T00:30:52;95200.97;;;2.39;95.35
47636;BME280;33364;50.766;15.338;2024-01-25T00:33:18;95210.28;;;2.46;95.08
47636;BME280;33364;50.766;15.338;2024-01-25T00:35:44;95209.50;;;2.34;95.05
47636;BME280;33364;50.766;15.338;2024-01-25T00:38:10;95212.00;;;2.29;95.67
47636;BME280;33364;50.766;15.338;2024-01-25T00:40:36;95215.38;;;2.18;95.98
47636;BME280;33364;50.766;15.338;2024-01-25T00:43:02;95213.69;;;2.12;96.34
47636;BME280;33364;50.766;15.338;2024-01-25T00:45:29;95202.13;;;2.08;96.64
47636;BME280;33364;50.766;15.338;2024-01-25T00:47:54;95201.34;;;2.19;96.81
47636;BME280;33364;50.766;15.338;2024-01-25T00:50:21;95191.94;;;2.18;96.43
47636;BME280;33364;50.766;15.338;2024-01-25T00:52:49;95191.59;;;2.15;96.33
47636;BME280;33364;50.766;15.338;2024-01-25T00:55:16;95186.06;;;2.11;96.43
47636;BME280;33364;50.766;15.338;2024-01-25T00:57:42;95190.91;;;2.19;96.24
47636;BME280;33364;50.766;15.338;2024-01-25T01:00:09;95189.34;;;2.18;96.28
47636;BME280;33364;50.766;15.338;2024-01-25T01:02:39;95187.19;;;2.15;96.09
47636;BME280;33364;50.766;15.338;2024-01-25T01:05:06;95184.38;;;2.17;96.47
47636;BME280;33364;50.766;15.338;2024-01-25T01:07:32;95187.09;;;2.22;96.30
47636;BME280;33364;50.766;15.338;2024-01-25T01:09:58;95190.56;;;2.39;95.66
47636;BME280;33364;50.766;15.338;2024-01-25T01:12:24;95195.22;;;2.37;95.67
47636;BME280;33364;50.766;15.338;2024-01-25T01:14:50;95189.53;;;2.51;94.75
47636;BME280;33364;50.766;15.338;2024-01-25T01:17:15;95205.88;;;2.47;94.48
47636;BME280;33364;50.766;15.338;2024-01-25T01:19:42;95197.94;;;2.53;94.40
47636;BME280;33364;50.766;15.338;2024-01-25T01:22:08;95190.41;;;2.69;93.30
47636;BME280;33364;50.766;15.338;2024-01-25T01:24:33;95193.94;;;2.63;93.33
47636;BME280;33364;50.766;15.338;2024-01-25T01:26:59;95198.16;;;2.64;93.57
47636;BME280;33364;50.766;15.338;2024-01-25T01:29:25;95204.16;;;2.52;93.72
47636;BME280;33364;50.766;15.338;2024-01-25T01:31:51;95208.69;;;2.45;94.23
47636;BME280;33364;50.766;15.338;2024-01-25T01:34:17;95214.69;;;2.46;94.10
47636;BME280;33364;50.766;15.338;2024-01-25T01:36:43;95212.53;;;2.54;93.51
47636;BME280;33364;50.766;15.338;2024-01-25T01:39:09;95215.28;;;2.48;93.59
47636;BME280;33364;50.766;15.338;2024-01-25T01:41:35;95207.88;;;2.57;93.10
47636;BME280;33364;50.766;15.338;2024-01-25T01:44:01;95208.88;;;2.67;91.38
47636;BME280;33364;50.766;15.338;2024-01-25T01:46:33;95210.59;;;2.62;91.75
47636;BME280;33364;50.766;15.338;2024-01-25T01:49:01;95206.50;;;2.66;91.64
47636;BME280;33364;50.766;15.338;2024-01-25T01:51:28;95226.22;;;2.73;89.93
47636;BME280;33364;50.766;15.338;2024-01-25T01:53:55;95223.94;;;2.77;89.92
47636;BME280;33364;50.766;15.338;2024-01-25T01:56:22;95210.69;;;2.78;90.43
47636;BME280;33364;50.766;15.338;2024-01-25T01:58:49;95216.50;;;2.69;90.48
47636;BME280;33364;50.766;15.338;2024-01-25T02:01:17;95206.53;;;2.54;91.67
47636;BME280;33364;50.766;15.338;2024-01-25T02:03:43;95198.25;;;2.57;91.64
47636;BME280;33364;50.766;15.338;2024-01-25T02:06:10;95206.88;;;2.58;92.09
47636;BME280;33364;50.766;15.338;2024-01-25T02:08:36;95209.59;;;2.51;92.17
47636;BME280;33364;50.766;15.338;2024-01-25T02:11:02;95192.25;;;2.57;92.16
47636;BME280;33364;50.766;15.338;2024-01-25T02:13:28;95203.00;;;2.60;91.44
47636;BME280;33364;50.766;15.338;2024-01-25T02:15:53;95192.56;;;2.60;91.03
47636;BME280;33364;50.766;15.338;2024-01-25T02:18:19;95199.06;;;2.58;91.16
47636;BME280;33364;50.766;15.338;2024-01-25T02:20:45;95177.94;;;2.71;90.28
47636;BME280;33364;50.766;15.338;2024-01-25T02:23:11;95192.56;;;2.60;91.14
47636;BME280;33364;50.766;15.338;2024-01-25T02:25:36;95185.91;;;2.64;91.31
47636;BME280;33364;50.766;15.338;2024-01-25T02:28:03;95178.03;;;2.76;89.39
47636;BME280;33364;50.766;15.338;2024-01-25T02:30:28;95174.22;;;2.67;90.00
47636;BME280;33364;50.766;15.338;2024-01-25T02:32:54;95168.19;;;2.66;90.20
47636;BME280;33364;50.766;15.338;2024-01-25T02:35:21;95167.78;;;2.58;90.90
47636;BME280;33364;50.766;15.338;2024-01-25T02:37:46;95158.00;;;2.65;89.87
47636;BME280;33364;50.766;15.338;2024-01-25T02:40:13;95156.19;;;2.65;90.40
47636;BME280;33364;50.766;15.338;2024-01-25T02:42:39;95160.56;;;2.76;88.56
47636;BME280;33364;50.766;15.338;2024-01-25T02:45:04;95154.56;;;2.76;88.56
47636;BME280;33364;50.766;15.338;2024-01-25T02:47:30;95145.59;;;2.83;88.54
47636;BME280;33364;50.766;15.338;2024-01-25T02:49:56;95148.72;;;2.69;88.94
47636;BME280;33364;50.766;15.338;2024-01-25T02:52:22;95139.06;;;2.69;89.44
47636;BME280;33364;50.766;15.338;2024-01-25T02:54:47;95149.44;;;2.81;88.54
47636;BME280;33364;50.766;15.338;2024-01-25T02:57:14;95143.88;;;2.89;87.95
47636;BME280;33364;50.766;15.338;2024-01-25T02:59:40;95145.28;;;2.80;88.27
47636;BME280;33364;50.766;15.338;2024-01-25T03:02:06;95150.00;;;2.83;88.84
47636;BME280;33364;50.766;15.338;2024-01-25T03:04:32;95158.31;;;2.80;88.53
47636;BME280;33364;50.766;15.338;2024-01-25T03:06:58;95152.53;;;2.78;88.75
47636;BME280;33364;50.766;15.338;2024-01-25T03:09:24;95149.91;;;2.78;88.01
47636;BME280;33364;50.766;15.338;2024-01-25T03:11:50;95157.84;;;2.83;87.71
47636;BME280;33364;50.766;15.338;2024-01-25T03:14:15;95157.53;;;2.79;87.79
47636;BME280;33364;50.766;15.338;2024-01-25T03:16:41;95163.88;;;2.72;88.79
47636;BME280;33364;50.766;15.338;2024-01-25T03:19:08;95157.75;;;2.78;88.20
47636;BME280;33364;50.766;15.338;2024-01-25T03:21:34;95156.03;;;2.83;87.37
47636;BME280;33364;50.766;15.338;2024-01-25T03:24:00;95130.88;;;2.77;87.49
47636;BME280;33364;50.766;15.338;2024-01-25T03:26:29;95151.59;;;2.84;87.27
47636;BME280;33364;50.766;15.338;2024-01-25T03:28:55;95150.94;;;2.77;87.71
47636;BME280;33364;50.766;15.338;2024-01-25T03:31:21;95158.22;;;2.75;87.80
47636;BME280;33364;50.766;15.338;2024-01-25T03:33:46;95151.06;;;2.70;87.61
47636;BME280;33364;50.766;15.338;2024-01-25T03:36:15;95160.84;;;2.63;88.19
47636;BME280;33364;50.766;15.338;2024-01-25T03:38:41;95163.19;;;2.65;88.58
47636;BME280;33364;50.766;15.338;2024-01-25T03:41:07;95156.84;;;2.72;88.05
47636;BME280;33364;50.766;15.338;2024-01-25T03:43:33;95174.31;;;2.72;87.84
47636;BME280;33364;50.766;15.338;2024-01-25T03:45:59;95163.56;;;2.68;88.16
47636;BME280;33364;50.766;15.338;2024-01-25T03:48:24;95166.06;;;2.63;88.93
47636;BME280;33364;50.766;15.338;2024-01-25T03:50:50;95166.38;;;2.67;88.39
47636;BME280;33364;50.766;15.338;2024-01-25T03:53:16;95161.53;;;2.59;88.87
47636;BME280;33364;50.766;15.338;2024-01-25T03:55:42;95191.22;;;2.58;89.27
47636;BME280;33364;50.766;15.338;2024-01-25T03:58:07;95148.72;;;2.57;89.00
47636;BME280;33364;50.766;15.338;2024-01-25T04:00:33;95157.31;;;2.69;88.13
47636;BME280;33364;50.766;15.338;2024-01-25T04:03:00;95155.28;;;2.60;88.49
47636;BME280;33364;50.766;15.338;2024-01-25T04:05:26;95152.56;;;2.54;89.25
47636;BME280;33364;50.766;15.338;2024-01-25T04:07:52;95154.63;;;2.52;89.46
47636;BME280;33364;50.766;15.338;2024-01-25T04:10:18;95151.13;;;2.59;89.43
47636;BME280;33364;50.766;15.338;2024-01-25T04:12:43;95175.50;;;2.52;90.03
47636;BME280;33364;50.766;15.338;2024-01-25T04:15:09;95146.03;;;2.52;90.05
47636;BME280;33364;50.766;15.338;2024-01-25T04:17:35;95164.50;;;2.50;90.58
47636;BME280;33364;50.766;15.338;2024-01-25T04:20:01;95162.25;;;2.42;90.71
47636;BME280;33364;50.766;15.338;2024-01-25T04:22:27;95139.13;;;2.46;90.23
47636;BME280;33364;50.766;15.338;2024-01-25T04:24:53;95150.13;;;2.36;90.47
47636;BME280;33364;50.766;15.338;2024-01-25T04:27:18;95136.72;;;2.44;89.87
47636;BME280;33364;50.766;15.338;2024-01-25T04:29:45;95133.53;;;2.54;88.16
47636;BME280;33364;50.766;15.338;2024-01-25T04:32:12;95137.72;;;2.55;88.02
47636;BME280;33364;50.766;15.338;2024-01-25T04:34:38;95135.38;;;2.53;88.41
47636;BME280;33364;50.766;15.338;2024-01-25T04:37:04;95137.09;;;2.48;88.76
47636;BME280;33364;50.766;15.338;2024-01-25T04:39:29;95131.19;;;2.52;87.37
47636;BME280;33364;50.766;15.338;2024-01-25T04:41:55;95113.94;;;2.51;87.94
47636;BME280;33364;50.766;15.338;2024-01-25T04:44:21;95126.50;;;2.54;87.49
47636;BME280;33364;50.766;15.338;2024-01-25T04:46:47;95126.97;;;2.51;87.60
47636;BME280;33364;50.766;15.338;2024-01-25T04:49:13;95139.53;;;2.54;86.95
47636;BME280;33364;50.766;15.338;2024-01-25T04:51:38;95127.84;;;2.69;86.39
47636;BME280;33364;50.766;15.338;2024-01-25T04:54:04;95152.69;;;2.60;86.35
47636;BME280;33364;50.766;15.338;2024-01-25T04:56:31;95144.03;;;2.71;85.36
47636;BME280;33364;50.766;15.338;2024-01-25T04:58:57;95149.84;;;2.61;86.03
47636;BME280;33364;50.766;15.338;2024-01-25T05:01:23;95145.22;;;2.63;86.14
47636;BME280;33364;50.766;15.338;2024-01-25T05:03:49;95147.25;;;2.61;85.88
47636;BME280;33364;50.766;15.338;2024-01-25T05:06:15;95130.56;;;2.74;84.74
47636;BME280;33364;50.766;15.338;2024-01-25T05:08:42;95137.59;;;2.73;84.53
47636;BME280;33364;50.766;15.338;2024-01-25T05:11:08;95149.16;;;2.66;85.13
47636;BME280;33364;50.766;15.338;2024-01-25T05:13:34;95151.75;;;2.66;84.53
47636;BME280;33364;50.766;15.338;2024-01-25T05:16:00;95149.16;;;2.66;84.96
47636;BME280;33364;50.766;15.338;2024-01-25T05:18:26;95145.06;;;2.70;84.44
47636;BME280;33364;50.766;15.338;2024-01-25T05:20:52;95152.34;;;2.68;84.56
47636;BME280;33364;50.766;15.338;2024-01-25T05:23:18;95143.69;;;2.79;83.72
47636;BME280;33364;50.766;15.338;2024-01-25T05:25:43;95158.66;;;2.72;83.62
47636;BME280;33364;50.766;15.338;2024-01-25T05:28:09;95160.94;;;2.68;83.88
47636;BME280;33364;50.766;15.338;2024-01-25T05:30:35;95177.59;;;2.67;83.83
47636;BME280;33364;50.766;15.338;2024-01-25T05:33:01;95170.47;;;2.63;84.43
47636;BME280;33364;50.766;15.338;2024-01-25T05:35:27;95171.28;;;2.63;84.19
47636;BME280;33364;50.766;15.338;2024-01-25T05:37:53;95169.00;;;2.67;83.89
47636;BME280;33364;50.766;15.338;2024-01-25T05:40:18;95162.09;;;2.61;84.21
47636;BME280;33364;50.766;15.338;2024-01-25T05:42:44;95180.69;;;2.64;83.54
47636;BME280;33364;50.766;15.338;2024-01-25T05:45:10;95181.00;;;2.68;83.32
47636;BME280;33364;50.766;15.338;2024-01-25T05:47:36;95198.59;;;2.61;83.81
47636;BME280;33364;50.766;15.338;2024-01-25T05:50:02;95204.38;;;2.63;83.87
47636;BME280;33364;50.766;15.338;2024-01-25T05:52:29;95201.44;;;2.59;84.23
47636;BME280;33364;50.766;15.338;2024-01-25T05:54:54;95203.38;;;2.52;84.87
47636;BME280;33364;50.766;15.338;2024-01-25T05:57:20;95209.69;;;2.68;83.38
47636;BME280;33364;50.766;15.338;2024-01-25T05:59:46;95203.25;;;2.59;84.03
47636;BME280;33364;50.766;15.338;2024-01-25T06:02:13;95218.09;;;2.58;84.38
47636;BME280;33364;50.766;15.338;2024-01-25T06:04:39;95226.13;;;2.57;84.59
47636;BME280;33364;50.766;15.338;2024-01-25T06:07:05;95208.47;;;2.59;84.18
47636;BME280;33364;50.766;15.338;2024-01-25T06:09:31;95225.91;;;2.58;83.92
47636;BME280;33364;50.766;15.338;2024-01-25T06:11:58;95226.03;;;2.63;83.94
47636;BME280;33364;50.766;15.338;2024-01-25T06:14:24;95234.97;;;2.67;83.68
47636;BME280;33364;50.766;15.338;2024-01-25T06:16:50;95234.28;;;2.60;84.37
47636;BME280;33364;50.766;15.338;2024-01-25T06:19:15;95243.25;;;2.52;84.91
47636;BME280;33364;50.766;15.338;2024-01-25T06:21:41;95246.31;;;2.49;85.09
47636;BME280;33364;50.766;15.338;2024-01-25T06:24:07;95244.50;;;2.50;85.21
47636;BME280;33364;50.766;15.338;2024-01-25T06:26:33;95251.88;;;2.53;84.23
47636;BME280;33364;50.766;15.338;2024-01-25T06:28:59;95252.66;;;2.53;84.75
47636;BME280;33364;50.766;15.338;2024-01-25T06:31:25;95249.72;;;2.50;84.91
47636;BME280;33364;50.766;15.338;2024-01-25T06:33:51;95247.34;;;2.48;84.89
47636;BME280;33364;50.766;15.338;2024-01-25T06:36:19;95238.94;;;2.46;85.00
47636;BME280;33364;50.766;15.338;2024-01-25T06:38:45;95252.09;;;2.51;84.59
47636;BME280;33364;50.766;15.338;2024-01-25T06:41:11;95272.38;;;2.49;84.70
47636;BME280;33364;50.766;15.338;2024-01-25T06:43:36;95255.38;;;2.47;84.72
47636;BME280;33364;50.766;15.338;2024-01-25T06:46:03;95272.03;;;2.58;84.21
47636;BME280;33364;50.766;15.338;2024-01-25T06:48:28;95254.69;;;2.51;83.60
47636;BME280;33364;50.766;15.338;2024-01-25T06:50:54;95270.34;;;2.51;83.63
47636;BME280;33364;50.766;15.338;2024-01-25T06:53:21;95273.28;;;2.55;82.95
47636;BME280;33364;50.766;15.338;2024-01-25T06:55:47;95272.84;;;2.58;82.96
47636;BME280;33364;50.766;15.338;2024-01-25T06:58:12;95267.94;;;2.62;82.39
47636;BME280;33364;50.766;15.338;2024-01-25T07:00:39;95267.72;;;2.75;81.80
47636;BME280;33364;50.766;15.338;2024-01-25T07:03:07;95258.75;;;2.71;81.91
47636;BME280;33364;50.766;15.338;2024-01-25T07:05:33;95272.59;;;2.71;82.43
47636;BME280;33364;50.766;15.338;2024-01-25T07:08:01;95274.28;;;2.66;83.07
47636;BME280;33364;50.766;15.338;2024-01-25T07:10:27;95260.25;;;2.67;83.41
47636;BME280;33364;50.766;15.338;2024-01-25T07:12:53;95255.72;;;2.62;82.66
47636;BME280;33364;50.766;15.338;2024-01-25T07:15:20;95265.34;;;2.62;82.48
47636;BME280;33364;50.766;15.338;2024-01-25T07:17:46;95271.69;;;2.66;82.41
47636;BME280;33364;50.766;15.338;2024-01-25T07:20:13;95274.75;;;2.63;82.16
47636;BME280;33364;50.766;15.338;2024-01-25T07:22:39;95278.50;;;2.67;81.98
47636;BME280;33364;50.766;15.338;2024-01-25T07:25:05;95284.38;;;2.62;82.98
47636;BME280;33364;50.766;15.338;2024-01-25T07:27:31;95274.97;;;2.61;83.78
47636;BME280;33364;50.766;15.338;2024-01-25T07:29:57;95268.41;;;2.59;84.55
47636;BME280;33364;50.766;15.338;2024-01-25T07:32:23;95279.97;;;2.63;83.21
47636;BME280;33364;50.766;15.338;2024-01-25T07:34:52;95281.09;;;2.67;82.50
47636;BME280;33364;50.766;15.338;2024-01-25T07:37:19;95287.91;;;2.68;81.96
47636;BME280;33364;50.766;15.338;2024-01-25T07:39:45;95289.03;;;2.72;82.36
47636;BME280;33364;50.766;15.338;2024-01-25T07:42:11;95280.63;;;2.70;82.52
47636;BME280;33364;50.766;15.338;2024-01-25T07:44:38;95293.91;;;2.68;81.92
47636;BME280;33364;50.766;15.338;2024-01-25T07:47:04;95283.59;;;2.73;82.13
47636;BME280;33364;50.766;15.338;2024-01-25T07:49:29;95293.81;;;2.75;81.73
47636;BME280;33364;50.766;15.338;2024-01-25T07:51:55;95286.53;;;2.77;82.01
47636;BME280;33364;50.766;15.338;2024-01-25T07:54:22;95296.06;;;2.83;81.81
47636;BME280;33364;50.766;15.338;2024-01-25T07:56:48;95292.31;;;2.79;81.53
47636;BME280;33364;50.766;15.338;2024-01-25T07:59:14;95296.63;;;2.85;81.23
47636;BME280;33364;50.766;15.338;2024-01-25T08:01:40;95278.38;;;2.85;81.22
47636;BME280;33364;50.766;15.338;2024-01-25T08:04:05;95279.03;;;2.80;80.45
47636;BME280;33364;50.766;15.338;2024-01-25T08:06:31;95287.00;;;2.85;80.02
47636;BME280;33364;50.766;15.338;2024-01-25T08:08:57;95305.00;;;2.87;79.80
47636;BME280;33364;50.766;15.338;2024-01-25T08:11:24;95300.00;;;2.97;78.96
47636;BME280;33364;50.766;15.338;2024-01-25T08:13:49;95289.34;;;2.98;79.29
47636;BME280;33364;50.766;15.338;2024-01-25T08:16:16;95290.94;;;3.00;78.86
47636;BME280;33364;50.766;15.338;2024-01-25T08:18:45;95308.06;;;2.95;79.03
47636;BME280;33364;50.766;15.338;2024-01-25T08:21:12;95320.53;;;2.93;79.89
47636;BME280;33364;50.766;15.338;2024-01-25T08:23:37;95319.16;;;2.91;79.82
47636;BME280;33364;50.766;15.338;2024-01-25T08:26:05;95319.63;;;2.88;80.42
47636;BME280;33364;50.766;15.338;2024-01-25T08:28:35;95311.00;;;2.87;80.37
47636;BME280;33364;50.766;15.338;2024-01-25T08:31:02;95317.03;;;2.88;80.27
47636;BME280;33364;50.766;15.338;2024-01-25T08:33:27;95324.53;;;2.84;80.80
47636;BME280;33364;50.766;15.338;2024-01-25T08:35:54;95336.28;;;2.87;79.78
47636;BME280;33364;50.766;15.338;2024-01-25T08:38:19;95336.97;;;2.94;79.66
47636;BME280;33364;50.766;15.338;2024-01-25T08:40:45;95319.97;;;2.91;79.59
47636;BME280;33364;50.766;15.338;2024-01-25T08:43:11;95331.75;;;2.94;80.13
47636;BME280;33364;50.766;15.338;2024-01-25T08:45:37;95334.25;;;3.01;79.55
47636;BME280;33364;50.766;15.338;2024-01-25T08:48:04;95324.84;;;3.00;79.18
47636;BME280;33364;50.766;15.338;2024-01-25T08:50:30;95341.97;;;2.95;79.75
47636;BME280;33364;50.766;15.338;2024-01-25T08:52:55;95359.56;;;3.00;79.65
47636;BME280;33364;50.766;15.338;2024-01-25T08:55:21;95358.53;;;3.01;79.42
47636;BME280;33364;50.766;15.338;2024-01-25T08:57:48;95362.81;;;3.07;79.36
47636;BME280;33364;50.766;15.338;2024-01-25T09:00:14;95352.72;;;3.11;78.96
47636;BME280;33364;50.766;15.338;2024-01-25T09:02:40;95354.56;;;3.10;79.13
47636;BME280;33364;50.766;15.338;2024-01-25T09:05:06;95350.13;;;3.11;79.38
47636;BME280;33364;50.766;15.338;2024-01-25T09:07:32;95344.22;;;3.15;77.98
47636;BME280;33364;50.766;15.338;2024-01-25T09:09:58;95362.69;;;3.14;77.96
47636;BME280;33364;50.766;15.338;2024-01-25T09:12:24;95368.38;;;3.22;77.86
47636;BME280;33364;50.766;15.338;2024-01-25T09:14:50;95375.16;;;3.23;78.08
47636;BME280;33364;50.766;15.338;2024-01-25T09:17:15;95367.91;;;3.25;77.41
47636;BME280;33364;50.766;15.338;2024-01-25T09:19:50;95367.91;;;3.25;77.28
47636;BME280;33364;50.766;15.338;2024-01-25T09:22:17;95367.91;;;3.25;77.54
47636;BME280;33364;50.766;15.338;2024-01-25T09:24:45;95367.22;;;3.30;77.32
47636;BME280;33364;50.766;15.338;2024-01-25T09:27:11;95369.94;;;3.35;77.29
47636;BME280;33364;50.766;15.338;2024-01-25T09:29:41;95379.47;;;3.29;76.77
47636;BME280;33364;50.766;15.338;2024-01-25T09:32:08;95373.03;;;3.32;77.29
47636;BME280;33364;50.766;15.338;2024-01-25T09:34:35;95386.28;;;3.30;77.76
47636;BME280;33364;50.766;15.338;2024-01-25T09:37:01;95387.88;;;3.31;77.22
47636;BME280;33364;50.766;15.338;2024-01-25T09:39:28;95364.50;;;3.36;76.73
47636;BME280;33364;50.766;15.338;2024-01-25T09:41:54;95391.38;;;3.37;76.80
47636;BME280;33364;50.766;15.338;2024-01-25T09:44:21;95391.50;;;3.42;76.91
47636;BME280;33364;50.766;15.338;2024-01-25T09:46:46;95393.31;;;3.42;75.74
47636;BME280;33364;50.766;15.338;2024-01-25T09:49:13;95400.13;;;3.43;75.88
47636;BME280;33364;50.766;15.338;2024-01-25T09:51:40;95410.22;;;3.39;76.22
47636;BME280;33364;50.766;15.338;2024-01-25T09:54:07;95410.56;;;3.43;76.66
47636;BME280;33364;50.766;15.338;2024-01-25T09:56:33;95398.97;;;3.38;76.08
47636;BME280;33364;50.766;15.338;2024-01-25T09:59:00;95399.88;;;3.44;75.61
47636;BME280;33364;50.766;15.338;2024-01-25T10:01:26;95406.59;;;3.40;76.35
47636;BME280;33364;50.766;15.338;2024-01-25T10:03:53;95384.56;;;3.48;76.25
47636;BME280;33364;50.766;15.338;2024-01-25T10:06:18;95400.22;;;3.48;76.52
47636;BME280;33364;50.766;15.338;2024-01-25T10:08:45;95401.25;;;3.47;76.34
47636;BME280;33364;50.766;15.338;2024-01-25T10:11:11;95402.84;;;3.48;76.23
47636;BME280;33364;50.766;15.338;2024-01-25T10:13:47;95407.59;;;3.51;76.20
47636;BME280;33364;50.766;15.338;2024-01-25T10:16:19;95405.44;;;3.48;75.24
47636;BME280;33364;50.766;15.338;2024-01-25T10:18:46;95388.88;;;3.54;75.61
47636;BME280;33364;50.766;15.338;2024-01-25T10:21:14;95393.84;;;3.55;75.68
47636;BME280;33364;50.766;15.338;2024-01-25T10:23:40;95384.56;;;3.48;75.37
47636;BME280;33364;50.766;15.338;2024-01-25T10:26:09;95391.03;;;3.45;75.94
47636;BME280;33364;50.766;15.338;2024-01-25T10:28:35;95378.31;;;3.49;76.22
47636;BME280;33364;50.766;15.338;2024-01-25T10:31:02;95370.13;;;3.57;75.47
47636;BME280;33364;50.766;15.338;2024-01-25T10:33:30;95382.59;;;3.55;75.73
47636;BME280;33364;50.766;15.338;2024-01-25T10:35:57;95367.97;;;3.54;75.46
47636;BME280;33364;50.766;15.338;2024-01-25T10:38:33;95361.38;;;3.51;75.67
47636;BME280;33364;50.766;15.338;2024-01-25T10:41:02;95379.22;;;3.54;75.87
47636;BME280;33364;50.766;15.338;2024-01-25T10:43:29;95375.25;;;3.52;76.39
47636;BME280;33364;50.766;15.338;2024-01-25T10:45:58;95371.03;;;3.51;75.36
47636;BME280;33364;50.766;15.338;2024-01-25T10:48:27;95360.25;;;3.59;74.86
47636;BME280;33364;50.766;15.338;2024-01-25T10:50:55;95380.00;;;3.55;74.89
47636;BME280;33364;50.766;15.338;2024-01-25T10:53:22;95368.53;;;3.56;75.07
47636;BME280;33364;50.766;15.338;2024-01-25T10:55:49;95365.47;;;3.59;74.82
47636;BME280;33364;50.766;15.338;2024-01-25T10:58:16;95379.75;;;3.56;74.81
47636;BME280;33364;50.766;15.338;2024-01-25T11:00:48;95388.38;;;3.68;74.56
47636;BME280;33364;50.766;15.338;2024-01-25T11:03:15;95388.81;;;3.65;74.49
47636;BME280;33364;50.766;15.338;2024-01-25T11:05:41;95380.44;;;3.63;74.36
47636;BME280;33364;50.766;15.338;2024-01-25T11:08:17;95372.50;;;3.58;75.16
47636;BME280;33364;50.766;15.338;2024-01-25T11:10:49;95368.09;;;3.59;74.63
47636;BME280;33364;50.766;15.338;2024-01-25T11:13:23;95376.72;;;3.48;74.73
47636;BME280;33364;50.766;15.338;2024-01-25T11:15:49;95368.44;;;3.51;75.50
47636;BME280;33364;50.766;15.338;2024-01-25T11:18:16;95362.88;;;3.47;75.55
47636;BME280;33364;50.766;15.338;2024-01-25T11:20:41;95355.84;;;3.48;76.10
47636;BME280;33364;50.766;15.338;2024-01-25T11:23:07;95354.25;;;3.47;76.15
47636;BME280;33364;50.766;15.338;2024-01-25T11:25:37;95348.56;;;3.50;75.55
47636;BME280;33364;50.766;15.338;2024-01-25T11:28:04;95364.53;;;3.65;75.64
47636;BME280;33364;50.766;15.338;2024-01-25T11:30:33;95368.78;;;3.54;75.16
47636;BME280;33364;50.766;15.338;2024-01-25T11:32:59;95353.34;;;3.53;75.65
47636;BME280;33364;50.766;15.338;2024-01-25T11:35:25;95365.81;;;3.51;75.82
47636;BME280;33364;50.766;15.338;2024-01-25T11:37:51;95369.44;;;3.50;76.36
47636;BME280;33364;50.766;15.338;2024-01-25T11:40:17;95385.56;;;3.58;76.22
47636;BME280;33364;50.766;15.338;2024-01-25T11:42:44;95372.16;;;3.55;75.93
47636;BME280;33364;50.766;15.338;2024-01-25T11:45:11;95381.59;;;3.56;75.65
47636;BME280;33364;50.766;15.338;2024-01-25T11:47:38;95391.22;;;3.55;75.45
47636;BME280;33364;50.766;15.338;2024-01-25T11:50:05;95381.03;;;3.54;75.75
47636;BME280;33364;50.766;15.338;2024-01-25T11:52:33;95384.19;;;3.56;75.35
47636;BME280;33364;50.766;15.338;2024-01-25T11:55:02;95376.34;;;3.56;75.65
47636;BME280;33364;50.766;15.338;2024-01-25T11:57:30;95369.75;;;3.65;75.72
47636;BME280;33364;50.766;15.338;2024-01-25T11:59:58;95391.00;;;3.57;76.00
47636;BME280;33364;50.766;15.338;2024-01-25T12:02:24;95388.28;;;3.63;75.40
47636;BME280;33364;50.766;15.338;2024-01-25T12:04:51;95397.81;;;3.58;75.95
47636;BME280;33364;50.766;15.338;2024-01-25T12:07:20;95394.84;;;3.66;75.28
47636;BME280;33364;50.766;15.338;2024-01-25T12:10:03;95422.34;;;3.57;75.45
47636;BME280;33364;50.766;15.338;2024-01-25T12:12:29;95388.50;;;3.62;74.27
47636;BME280;33364;50.766;15.338;2024-01-25T12:14:59;95392.03;;;3.56;74.43
47636;BME280;33364;50.766;15.338;2024-01-25T12:17:29;95416.31;;;3.56;74.79
47636;BME280;33364;50.766;15.338;2024-01-25T12:19:58;95426.75;;;3.56;74.78
47636;BME280;33364;50.766;15.338;2024-01-25T12:22:27;95424.25;;;3.61;74.46
47636;BME280;33364;50.766;15.338;2024-01-25T12:24:56;95435.03;;;3.65;74.80
47636;BME280;33364;50.766;15.338;2024-01-25T12:27:24;95427.56;;;3.57;75.00
47636;BME280;33364;50.766;15.338;2024-01-25T12:29:51;95424.03;;;3.51;74.60
47636;BME280;33364;50.766;15.338;2024-01-25T12:32:22;95432.78;;;3.57;74.88
47636;BME280;33364;50.766;15.338;2024-01-25T12:34:59;95429.28;;;3.51;74.93
47636;BME280;33364;50.766;15.338;2024-01-25T12:37:29;95430.19;;;3.45;74.93
47636;BME280;33364;50.766;15.338;2024-01-25T12:39:55;95429.59;;;3.55;74.45
47636;BME280;33364;50.766;15.338;2024-01-25T12:42:21;95438.69;;;3.40;75.31
47636;BME280;33364;50.766;15.338;2024-01-25T12:44:48;95445.28;;;3.43;75.11
47636;BME280;33364;50.766;15.338;2024-01-25T12:47:14;95444.72;;;3.41;75.17
47636;BME280;33364;50.766;15.338;2024-01-25T12:49:43;95442.34;;;3.39;75.34
47636;BME280;33364;50.766;15.338;2024-01-25T12:52:11;95473.22;;;3.43;75.20
47636;BME280;33364;50.766;15.338;2024-01-25T12:54:37;95455.97;;;3.42;74.65
47636;BME280;33364;50.766;15.338;2024-01-25T12:57:04;95454.69;;;3.44;74.69